createdAt,value
2018-08-31T06:21:00.956Z,2336.00
2018-08-31T06:22:00.873Z,2380.00
2018-08-31T06:23:00.862Z,2420.00
2018-08-31T06:24:00.878Z,2460.00
2018-08-31T06:25:00.848Z,2496.00
2018-08-31T06:26:00.833Z,2524.00
2018-08-31T06:27:00.890Z,2560.00
2018-08-31T06:28:00.807Z,2616.00
2018-08-31T06:29:00.823Z,2664.00
2018-08-31T06:30:00.785Z,2664.00
2018-08-31T06:31:00.773Z,2692.00
2018-08-31T06:32:00.765Z,2724.00
2018-08-31T06:33:00.773Z,2732.00
2018-08-31T06:34:00.818Z,2744.00
2018-08-31T06:35:00.732Z,2752.00
2018-08-31T06:36:00.717Z,2764.00
2018-08-31T06:37:00.705Z,2784.00
2018-08-31T06:38:00.695Z,2808.00
2018-08-31T06:39:00.709Z,2840.00
2018-08-31T06:40:00.674Z,2868.00
2018-08-31T06:41:00.700Z,2884.00
2018-08-31T06:42:00.652Z,2904.00
2018-08-31T06:43:00.638Z,2928.00
2018-08-31T06:44:00.631Z,2940.00
2018-08-31T06:45:00.642Z,2964.00
2018-08-31T06:46:00.607Z,2980.00
2018-08-31T06:47:00.603Z,3008.00
2018-08-31T06:48:00.584Z,3036.00
2018-08-31T06:49:00.597Z,3072.00
2018-08-31T06:50:00.562Z,3108.00
2018-08-31T06:51:00.550Z,3136.00
2018-08-31T06:52:00.538Z,3168.00
2018-08-31T06:53:00.531Z,3196.00
2018-08-31T06:54:00.527Z,3224.00
2018-08-31T06:55:00.530Z,3252.00
2018-08-31T06:56:00.495Z,3280.00
2018-08-31T06:57:00.483Z,3300.00
2018-08-31T06:58:00.472Z,3340.00
2018-08-31T06:59:00.463Z,3368.00
2018-08-31T07:00:00.476Z,3400.00
2018-08-31T07:01:00.437Z,3432.00
2018-08-31T07:02:00.432Z,3472.00
2018-08-31T07:03:00.437Z,3508.00
2018-08-31T07:04:00.408Z,3552.00
2018-08-31T07:05:00.420Z,3620.00
2018-08-31T07:06:00.388Z,3680.00
2018-08-31T07:07:00.371Z,3704.00
2018-08-31T07:08:00.361Z,3736.00
2018-08-31T07:09:00.352Z,3760.00
2018-08-31T07:10:00.364Z,3784.00
2018-08-31T07:11:00.328Z,3800.00
2018-08-31T07:12:00.315Z,3796.00
2018-08-31T07:13:00.308Z,3796.00
2018-08-31T07:14:00.294Z,3792.00
2018-08-31T07:15:00.311Z,3792.00
2018-08-31T07:16:00.281Z,3788.00
2018-08-31T07:17:00.265Z,3792.00
2018-08-31T07:18:00.253Z,3804.00
2018-08-31T07:19:00.240Z,3816.00
2018-08-31T07:20:00.254Z,3820.00
2018-08-31T07:21:00.216Z,3824.00
2018-08-31T07:22:00.205Z,3832.00
2018-08-31T07:23:00.198Z,3832.00
2018-08-31T07:24:00.184Z,3836.00
2018-08-31T07:25:00.198Z,3840.00
2018-08-31T07:26:00.166Z,3844.00
2018-08-31T07:27:00.154Z,3840.00
2018-08-31T07:28:00.140Z,3836.00
2018-08-31T07:29:00.130Z,3832.00
2018-08-31T07:30:00.146Z,3816.00
2018-08-31T07:31:00.112Z,3800.00
2018-08-31T07:32:00.096Z,3796.00
2018-08-31T07:33:00.086Z,3800.00
2018-08-31T07:34:00.072Z,3804.00
2018-08-31T07:35:00.088Z,3816.00
2018-08-31T07:36:00.050Z,3828.00
2018-08-31T07:37:00.043Z,3840.00
2018-08-31T07:38:00.028Z,3852.00
2018-08-31T07:39:00.019Z,3856.00
2018-08-31T07:40:00.031Z,3856.00
2018-08-31T07:40:59.994Z,3868.00
2018-08-31T07:41:59.987Z,3888.00
2018-08-31T07:42:59.977Z,3904.00
2018-08-31T07:43:59.965Z,3936.00
2018-08-31T07:44:59.977Z,3956.00
2018-08-31T07:45:59.943Z,3980.00
2018-08-31T07:46:59.928Z,4016.00
2018-08-31T07:47:59.921Z,4060.00
2018-08-31T07:48:59.908Z,4108.00
2018-08-31T07:49:59.921Z,4152.00
2018-08-31T07:50:59.886Z,4212.00
2018-08-31T07:51:59.876Z,4224.00
2018-08-31T07:52:59.866Z,4312.00
2018-08-31T07:53:59.986Z,4360.00
2018-08-31T07:54:59.865Z,4408.00
2018-08-31T07:55:59.829Z,4452.00
2018-08-31T07:56:59.818Z,4496.00
2018-08-31T07:57:59.808Z,4532.00
2018-08-31T07:58:59.808Z,4572.00
2018-08-31T08:00:00.206Z,4624.00
2018-08-31T08:00:59.791Z,3788.00
2018-08-31T08:01:59.764Z,4740.00
2018-08-31T08:02:59.797Z,4804.00
2018-08-31T08:03:59.741Z,4880.00
2018-08-31T08:04:59.753Z,4956.00
2018-08-31T08:05:59.756Z,5036.00
2018-08-31T08:06:59.708Z,5124.00
2018-08-31T08:07:59.705Z,5164.00
2018-08-31T08:08:59.686Z,5236.00
2018-08-31T08:09:59.700Z,5332.00
2018-08-31T08:10:59.662Z,5404.00
2018-08-31T08:11:59.653Z,5468.00
2018-08-31T08:12:59.648Z,5512.00
2018-08-31T08:13:59.636Z,5612.00
2018-08-31T08:14:59.643Z,5692.00
2018-08-31T08:15:59.626Z,5752.00
2018-08-31T08:16:59.598Z,5808.00
2018-08-31T08:17:59.585Z,5868.00
2018-08-31T08:18:59.576Z,5932.00
2018-08-31T08:19:59.590Z,5980.00
2018-08-31T08:20:59.552Z,6028.00
2018-08-31T08:21:59.543Z,6072.00
2018-08-31T08:22:59.532Z,6124.00
2018-08-31T08:23:59.523Z,6180.00
2018-08-31T08:25:00.130Z,6228.00
2018-08-31T08:25:59.498Z,6268.00
2018-08-31T08:26:59.492Z,6328.00
2018-08-31T08:27:59.501Z,6372.00
2018-08-31T08:28:59.464Z,6400.00
2018-08-31T08:29:59.476Z,6476.00
2018-08-31T08:30:59.446Z,6492.00
2018-08-31T08:31:59.432Z,6508.00
2018-08-31T08:32:59.429Z,6512.00
2018-08-31T08:33:59.410Z,6572.00
2018-08-31T08:34:59.398Z,6620.00
2018-08-31T08:35:59.473Z,6672.00
2018-08-31T08:36:59.435Z,6468.00
2018-08-31T08:37:59.370Z,6752.00
2018-08-31T08:38:59.351Z,6800.00
2018-08-31T08:39:59.344Z,6800.00
2018-08-31T08:40:59.415Z,6804.00
2018-08-31T08:41:59.343Z,6788.00
2018-08-31T08:42:59.311Z,6764.00
2018-08-31T08:43:59.300Z,6764.00
2018-08-31T08:44:59.287Z,6708.00
2018-08-31T08:45:59.301Z,6680.00
2018-08-31T08:46:59.265Z,6704.00
2018-08-31T08:47:59.262Z,6672.00
2018-08-31T08:48:59.258Z,6712.00
2018-08-31T08:49:59.237Z,6824.00
2018-08-31T08:50:59.248Z,6836.00
2018-08-31T08:51:59.231Z,6872.00
2018-08-31T08:52:59.200Z,6908.00
2018-08-31T08:53:59.189Z,6944.00
2018-08-31T08:54:59.178Z,6920.00
2018-08-31T08:55:59.191Z,6908.00
2018-08-31T08:56:59.156Z,6908.00
2018-08-31T08:57:59.213Z,6908.00
2018-08-31T08:58:59.134Z,6932.00
2018-08-31T08:59:59.182Z,6980.00
2018-08-31T09:00:59.135Z,7036.00
2018-08-31T09:01:59.101Z,7084.00
2018-08-31T09:02:59.087Z,7080.00
2018-08-31T09:03:59.076Z,7088.00
2018-08-31T09:04:59.068Z,7120.00
2018-08-31T09:05:59.088Z,7172.00
2018-08-31T09:06:59.043Z,7276.00
2018-08-31T09:07:59.032Z,7348.00
2018-08-31T09:08:59.021Z,7392.00
2018-08-31T09:09:59.009Z,7388.00
2018-08-31T09:10:59.025Z,7372.00
2018-08-31T09:11:59.075Z,7372.00
2018-08-31T09:12:58.977Z,7372.00
2018-08-31T09:13:58.967Z,7380.00
2018-08-31T09:14:58.955Z,7460.00
2018-08-31T09:15:58.970Z,7480.00
2018-08-31T09:16:58.934Z,7468.00
2018-08-31T09:17:58.987Z,7444.00
2018-08-31T09:18:58.911Z,7412.00
2018-08-31T09:19:58.899Z,7372.00
2018-08-31T09:20:58.915Z,7304.00
2018-08-31T09:21:58.902Z,7232.00
2018-08-31T09:22:58.867Z,7156.00
2018-08-31T09:23:58.856Z,7124.00
2018-08-31T09:24:58.844Z,7116.00
2018-08-31T09:25:58.860Z,7176.00
2018-08-31T09:26:58.822Z,7212.00
2018-08-31T09:27:58.814Z,7268.00
2018-08-31T09:28:58.804Z,7248.00
2018-08-31T09:29:58.791Z,7192.00
2018-08-31T09:30:58.812Z,7132.00
2018-08-31T09:31:58.766Z,7084.00
2018-08-31T09:32:58.758Z,6956.00
2018-08-31T09:33:58.758Z,6892.00
2018-08-31T09:34:58.737Z,6872.00
2018-08-31T09:35:58.746Z,6816.00
2018-08-31T09:36:58.712Z,6772.00
2018-08-31T09:37:58.699Z,6708.00
2018-08-31T09:38:58.695Z,6636.00
2018-08-31T09:39:58.676Z,6552.00
2018-08-31T09:40:58.690Z,6488.00
2018-08-31T09:41:58.655Z,6432.00
2018-08-31T09:42:58.644Z,6384.00
2018-08-31T09:43:58.689Z,6384.00
2018-08-31T09:44:58.622Z,6388.00
2018-08-31T09:45:58.636Z,6292.00
2018-08-31T09:46:58.600Z,6332.00
2018-08-31T09:47:58.622Z,6392.00
2018-08-31T09:48:58.579Z,6472.00
2018-08-31T09:49:58.567Z,6428.00
2018-08-31T09:50:58.582Z,6396.00
2018-08-31T09:51:58.545Z,6356.00
2018-08-31T09:52:58.533Z,6376.00
2018-08-31T09:53:58.524Z,6328.00
2018-08-31T09:54:58.512Z,6296.00
2018-08-31T09:55:58.528Z,6252.00
2018-08-31T09:56:58.488Z,6128.00
2018-08-31T09:57:58.479Z,6132.00
2018-08-31T09:58:58.467Z,6140.00
2018-08-31T09:59:58.456Z,6120.00
2018-08-31T10:00:58.471Z,6104.00
2018-08-31T10:01:58.432Z,6124.00
2018-08-31T10:02:58.424Z,6092.00
2018-08-31T10:03:58.412Z,6136.00
2018-08-31T10:04:58.401Z,6160.00
2018-08-31T10:05:58.415Z,6144.00
2018-08-31T10:06:58.386Z,6120.00
2018-08-31T10:07:58.370Z,6172.00
2018-08-31T10:08:58.355Z,6148.00
2018-08-31T10:09:58.345Z,6112.00
2018-08-31T10:10:58.356Z,6028.00
2018-08-31T10:11:58.349Z,5964.00
2018-08-31T10:12:58.312Z,5848.00
2018-08-31T10:13:58.300Z,5680.00
2018-08-31T10:14:58.291Z,5544.00
2018-08-31T10:15:58.281Z,5444.00
2018-08-31T10:16:58.298Z,5364.00
2018-08-31T10:17:58.257Z,5356.00
2018-08-31T10:18:58.247Z,5352.00
2018-08-31T10:19:58.237Z,5308.00
2018-08-31T10:20:58.225Z,4812.00
2018-08-31T10:21:58.254Z,5256.00
2018-08-31T10:22:58.203Z,5404.00
2018-08-31T10:23:58.191Z,5420.00
2018-08-31T10:24:58.180Z,5440.00
2018-08-31T10:25:58.172Z,5572.00
2018-08-31T10:26:58.183Z,5648.00
2018-08-31T10:27:58.150Z,5748.00
2018-08-31T10:28:58.136Z,5872.00
2018-08-31T10:29:58.161Z,5968.00
2018-08-31T10:30:58.119Z,6048.00
2018-08-31T10:31:58.126Z,6108.00
2018-08-31T10:32:58.091Z,6144.00
2018-08-31T10:33:58.084Z,6156.00
2018-08-31T10:34:58.071Z,6208.00
2018-08-31T10:35:58.059Z,6260.00
2018-08-31T10:36:58.093Z,6292.00
2018-08-31T10:37:58.036Z,6332.00
2018-08-31T10:38:58.025Z,6396.00
2018-08-31T10:39:58.015Z,6428.00
2018-08-31T10:40:58.004Z,6424.00
2018-08-31T10:41:58.018Z,6440.00
2018-08-31T10:42:57.978Z,6448.00
2018-08-31T10:43:57.968Z,6448.00
2018-08-31T10:44:57.959Z,6440.00
2018-08-31T10:45:57.948Z,6412.00
2018-08-31T10:46:57.962Z,6408.00
2018-08-31T10:47:57.928Z,6428.00
2018-08-31T10:48:57.915Z,6464.00
2018-08-31T10:49:57.903Z,6500.00
2018-08-31T10:50:57.893Z,6544.00
2018-08-31T10:51:57.906Z,6580.00
2018-08-31T10:52:57.870Z,6624.00
2018-08-31T10:53:57.858Z,6680.00
2018-08-31T10:54:57.846Z,6708.00
2018-08-31T10:55:57.838Z,6780.00
2018-08-31T10:56:57.850Z,6820.00
2018-08-31T10:57:57.814Z,6848.00
2018-08-31T10:58:57.804Z,6884.00
2018-08-31T10:59:57.792Z,6932.00
2018-08-31T11:00:57.781Z,6952.00
2018-08-31T11:01:57.793Z,6768.00
2018-08-31T11:02:57.757Z,6952.00
2018-08-31T11:03:57.750Z,6964.00
2018-08-31T11:04:57.737Z,7032.00
2018-08-31T11:05:57.726Z,7108.00
2018-08-31T11:06:57.736Z,7156.00
2018-08-31T11:07:57.702Z,7196.00
2018-08-31T11:08:57.692Z,7208.00
2018-08-31T11:09:57.681Z,7272.00
2018-08-31T11:10:57.669Z,7332.00
2018-08-31T11:11:57.687Z,7368.00
2018-08-31T11:12:57.655Z,7424.00
2018-08-31T11:13:57.648Z,7036.00
2018-08-31T11:14:57.624Z,7408.00
2018-08-31T11:15:57.612Z,7548.00
2018-08-31T11:16:57.626Z,7140.00
2018-08-31T11:17:57.590Z,7616.00
2018-08-31T11:18:57.735Z,7668.00
2018-08-31T11:19:57.570Z,7300.00
2018-08-31T11:20:57.561Z,7288.00
2018-08-31T11:21:57.570Z,7676.00
2018-08-31T11:22:57.536Z,7728.00
2018-08-31T11:23:57.525Z,7760.00
2018-08-31T11:24:57.577Z,7788.00
2018-08-31T11:25:57.655Z,7768.00
2018-08-31T11:26:57.958Z,7784.00
2018-08-31T11:27:58.768Z,7800.00
2018-08-31T11:28:57.477Z,7788.00
2018-08-31T11:29:57.747Z,7784.00
2018-08-31T11:30:57.446Z,7792.00
2018-08-31T11:31:57.466Z,7780.00
2018-08-31T11:32:57.428Z,7768.00
2018-08-31T11:33:57.415Z,7748.00
2018-08-31T11:34:57.403Z,7720.00
2018-08-31T11:35:57.392Z,7732.00
2018-08-31T11:36:57.407Z,7716.00
2018-08-31T11:37:57.423Z,7724.00
2018-08-31T11:38:57.360Z,7740.00
2018-08-31T11:39:57.349Z,7724.00
2018-08-31T11:40:57.706Z,7724.00
2018-08-31T11:41:57.746Z,7700.00
2018-08-31T11:42:57.358Z,7708.00
2018-08-31T11:43:57.304Z,7732.00
2018-08-31T11:44:57.294Z,7688.00
2018-08-31T11:45:58.018Z,7352.00
2018-08-31T11:46:57.296Z,7248.00
2018-08-31T11:47:57.339Z,7768.00
2018-08-31T11:48:57.253Z,7808.00
2018-08-31T11:49:57.316Z,7852.00
2018-08-31T11:50:57.236Z,7888.00
2018-08-31T11:51:57.353Z,7924.00
2018-08-31T11:52:57.211Z,7928.00
2018-08-31T11:53:57.564Z,7924.00
2018-08-31T11:54:57.193Z,7996.00
2018-08-31T11:55:57.250Z,8120.00
2018-08-31T11:56:57.161Z,8236.00
2018-08-31T11:57:57.250Z,8332.00
2018-08-31T11:58:57.371Z,8400.00
2018-08-31T11:59:57.205Z,8444.00
2018-08-31T12:00:57.187Z,8428.00
2018-08-31T12:01:57.198Z,8432.00
2018-08-31T12:02:57.195Z,8492.00
2018-08-31T12:03:57.093Z,8556.00
2018-08-31T12:04:57.072Z,8676.00
2018-08-31T12:05:57.062Z,8760.00
2018-08-31T12:06:57.052Z,8824.00
2018-08-31T12:07:58.179Z,8852.00
2018-08-31T12:08:57.178Z,8880.00
2018-08-31T12:09:57.080Z,8960.00
2018-08-31T12:10:57.006Z,8984.00
2018-08-31T12:11:57.072Z,9064.00
2018-08-31T12:12:57.012Z,9176.00
2018-08-31T12:13:57.374Z,9292.00
2018-08-31T12:14:56.962Z,9460.00
2018-08-31T12:15:56.951Z,9696.00
2018-08-31T12:16:57.008Z,9932.00
2018-08-31T12:17:58.162Z,9984.00
2018-08-31T12:18:57.180Z,10124.00
2018-08-31T12:19:56.930Z,10108.00
2018-08-31T12:20:57.246Z,10196.00
2018-08-31T12:21:56.978Z,10292.00
2018-08-31T12:23:01.248Z,10368.00
2018-08-31T12:23:57.413Z,10492.00
2018-08-31T12:24:56.924Z,10560.00
2018-08-31T12:25:58.089Z,10656.00
2018-08-31T12:26:57.830Z,10732.00
2018-08-31T12:27:56.843Z,10788.00
2018-08-31T12:28:56.907Z,10888.00
2018-08-31T12:29:57.502Z,10980.00
2018-08-31T12:30:56.786Z,11004.00
2018-08-31T12:31:57.190Z,11016.00
2018-08-31T12:32:56.787Z,11104.00
2018-08-31T12:33:59.239Z,11172.00
2018-08-31T12:34:57.372Z,11168.00
2018-08-31T12:35:57.015Z,11240.00
2018-08-31T12:36:56.719Z,11312.00
2018-08-31T12:37:56.861Z,11388.00
2018-08-31T12:38:56.752Z,11464.00
2018-08-31T12:39:56.687Z,11580.00
2018-08-31T12:40:56.678Z,11672.00
2018-08-31T12:41:56.683Z,11824.00
2018-08-31T12:42:56.684Z,12024.00
2018-08-31T12:43:56.842Z,12256.00
2018-08-31T12:44:56.637Z,12700.00
2018-08-31T12:45:56.625Z,14660.00
2018-08-31T12:46:56.810Z,16724.00
2018-08-31T12:47:56.697Z,16936.00
2018-08-31T12:48:56.590Z,17528.00
2018-08-31T12:49:56.579Z,18176.00
2018-08-31T12:50:56.568Z,18784.00
2018-08-31T12:51:56.560Z,18912.00
2018-08-31T12:52:56.580Z,19008.00
2018-08-31T12:53:56.536Z,19360.00
2018-08-31T12:54:56.525Z,19616.00
2018-08-31T12:55:57.298Z,19936.00
2018-08-31T12:56:56.502Z,19872.00
2018-08-31T12:57:56.515Z,20096.00
2018-08-31T12:58:56.480Z,19936.00
2018-08-31T12:59:56.513Z,20256.00
2018-08-31T13:00:56.461Z,20576.00
2018-08-31T13:01:56.553Z,21248.00
2018-08-31T13:02:56.464Z,21472.00
2018-08-31T13:03:56.426Z,21472.00
2018-08-31T13:04:56.417Z,21440.00
2018-08-31T13:05:56.405Z,21920.00
2018-08-31T13:06:56.523Z,20864.00
2018-08-31T13:07:56.406Z,21280.00
2018-08-31T13:08:56.407Z,22176.00
2018-08-31T13:09:56.362Z,23136.00
2018-08-31T13:10:56.361Z,23264.00
2018-08-31T13:11:56.342Z,23328.00
2018-08-31T13:12:56.354Z,17720.00
2018-08-31T13:13:56.319Z,11488.00
2018-08-31T13:14:56.308Z,23328.00
2018-08-31T13:15:56.298Z,22336.00
2018-08-31T13:16:56.286Z,24736.00
2018-08-31T13:17:56.299Z,26464.00
2018-08-31T13:18:56.265Z,25952.00
2018-08-31T13:19:56.295Z,25184.00
2018-08-31T13:20:56.244Z,25376.00
2018-08-31T13:21:56.234Z,26176.00
2018-08-31T13:22:56.246Z,26720.00
2018-08-31T13:23:56.211Z,28352.00
2018-08-31T13:24:56.200Z,28704.00
2018-08-31T13:25:56.188Z,29536.00
2018-08-31T13:26:56.179Z,30624.00
2018-08-31T13:27:56.194Z,30432.00
2018-08-31T13:28:56.159Z,31104.00
2018-08-31T13:29:56.148Z,32032.00
2018-08-31T13:30:56.139Z,32608.00
2018-08-31T13:31:56.128Z,32448.00
2018-08-31T13:32:56.141Z,31488.00
2018-08-31T13:33:56.108Z,30432.00
2018-08-31T13:34:56.096Z,31456.00
2018-08-31T13:35:56.085Z,34048.00
2018-08-31T13:36:56.077Z,33472.00
2018-08-31T13:37:56.089Z,32640.00
2018-08-31T13:38:56.079Z,33952.00
2018-08-31T13:39:56.043Z,35520.00
2018-08-31T13:40:56.034Z,35552.00
2018-08-31T13:41:56.020Z,35328.00
2018-08-31T13:42:56.013Z,35072.00
2018-08-31T13:43:56.049Z,34848.00
2018-08-31T13:44:55.989Z,35200.00
2018-08-31T13:45:55.976Z,34912.00
2018-08-31T13:46:55.967Z,35072.00
2018-08-31T13:47:55.959Z,34688.00
2018-08-31T13:48:55.970Z,35840.00
2018-08-31T13:49:55.940Z,37024.00
2018-08-31T13:50:55.927Z,37824.00
2018-08-31T13:51:55.913Z,36544.00
2018-08-31T13:52:55.904Z,34848.00
2018-08-31T13:53:55.919Z,34752.00
2018-08-31T13:54:55.885Z,34400.00
2018-08-31T13:55:55.874Z,18464.00
2018-08-31T13:56:55.863Z,30816.00
2018-08-31T13:57:55.856Z,34848.00
2018-08-31T13:58:55.878Z,34048.00
2018-08-31T13:59:55.831Z,34880.00
2018-08-31T14:00:55.821Z,38080.00
2018-08-31T14:01:55.806Z,38784.00
2018-08-31T14:02:55.797Z,38592.00
2018-08-31T14:03:55.817Z,39936.00
2018-08-31T14:04:55.778Z,39776.00
2018-08-31T14:05:55.766Z,40448.00
2018-08-31T14:06:55.762Z,39232.00
2018-08-31T14:07:55.743Z,35072.00
2018-08-31T14:08:55.759Z,35552.00
2018-08-31T14:09:55.728Z,39456.00
2018-08-31T14:10:55.712Z,42848.00
2018-08-31T14:11:55.704Z,43840.00
2018-08-31T14:12:55.700Z,39968.00
2018-08-31T14:13:55.707Z,10856.00
2018-08-31T14:14:55.673Z,9648.00
2018-08-31T14:15:55.656Z,8732.00
2018-08-31T14:16:55.647Z,7672.00
2018-08-31T14:17:55.636Z,6732.00
2018-08-31T14:18:55.649Z,6624.00
2018-08-31T14:19:55.615Z,6332.00
2018-08-31T14:20:55.637Z,6100.00
2018-08-31T14:21:55.594Z,6044.00
2018-08-31T14:22:55.583Z,6016.00
2018-08-31T14:23:55.598Z,6124.00
2018-08-31T14:24:55.563Z,6116.00
2018-08-31T14:25:55.550Z,6068.00
2018-08-31T14:26:55.594Z,6072.00
2018-08-31T14:27:55.531Z,6420.00
2018-08-31T14:28:55.548Z,7116.00
2018-08-31T14:29:55.686Z,7448.00
2018-08-31T14:30:55.498Z,7820.00
2018-08-31T14:31:55.491Z,8292.00
2018-08-31T14:32:55.478Z,8812.00
2018-08-31T14:33:55.494Z,9860.00
2018-08-31T14:34:55.488Z,16612.00
2018-08-31T14:35:55.450Z,15772.00
2018-08-31T14:36:55.444Z,39904.00
2018-08-31T14:37:55.428Z,42304.00
2018-08-31T14:38:55.441Z,44992.00
2018-08-31T14:39:55.408Z,44032.00
2018-08-31T14:40:55.398Z,44384.00
2018-08-31T14:41:55.386Z,45088.00
2018-08-31T14:42:55.375Z,45760.00
2018-08-31T14:43:55.406Z,45088.00
2018-08-31T14:44:55.360Z,42048.00
2018-08-31T14:45:55.346Z,41664.00
2018-08-31T14:46:55.343Z,42848.00
2018-08-31T14:47:55.322Z,42720.00
2018-08-31T14:48:55.333Z,31520.00
2018-08-31T14:49:55.387Z,41536.00
2018-08-31T14:50:55.292Z,42304.00
2018-08-31T14:51:55.282Z,28608.00
2018-08-31T14:52:55.265Z,27328.00
2018-08-31T14:53:55.289Z,11224.00
2018-08-31T14:54:55.246Z,10628.00
2018-08-31T14:55:55.235Z,10156.00
2018-08-31T14:56:55.223Z,9632.00
2018-08-31T14:57:55.216Z,8816.00
2018-08-31T14:58:55.228Z,9116.00
2018-08-31T14:59:55.198Z,9068.00
2018-08-31T15:00:55.181Z,9544.00
2018-08-31T15:01:55.170Z,17372.00
2018-08-31T15:02:55.159Z,31008.00
2018-08-31T15:03:55.281Z,46592.00
2018-08-31T15:04:55.139Z,25440.00
2018-08-31T15:05:55.140Z,25888.00
2018-08-31T15:06:55.117Z,16956.00
2018-08-31T15:07:55.104Z,43968.00
2018-08-31T15:08:55.119Z,41600.00
2018-08-31T15:09:55.088Z,46592.00
2018-08-31T15:10:55.075Z,45088.00
2018-08-31T15:11:55.073Z,6492.00
2018-08-31T15:12:55.060Z,6576.00
2018-08-31T15:13:55.072Z,6484.00
2018-08-31T15:14:55.032Z,6504.00
2018-08-31T15:15:55.024Z,6484.00
2018-08-31T15:16:55.013Z,6556.00
2018-08-31T15:17:55.000Z,5672.00
2018-08-31T15:18:54.991Z,6332.00
2018-08-31T15:19:55.007Z,5912.00
2018-08-31T15:20:54.968Z,4564.00
2018-08-31T15:21:54.959Z,3464.00
2018-08-31T15:22:54.950Z,3528.00
2018-08-31T15:23:54.939Z,4600.00
2018-08-31T15:24:54.952Z,5884.00
2018-08-31T15:25:54.920Z,5992.00
2018-08-31T15:26:54.907Z,5848.00
2018-08-31T15:27:54.896Z,5672.00
2018-08-31T15:28:54.885Z,5660.00
2018-08-31T15:29:54.904Z,5636.00
2018-08-31T15:30:54.862Z,5544.00
2018-08-31T15:31:54.854Z,5512.00
2018-08-31T15:32:54.843Z,5412.00
2018-08-31T15:33:54.835Z,5256.00
2018-08-31T15:34:54.844Z,5164.00
2018-08-31T15:35:54.813Z,5060.00
2018-08-31T15:36:54.816Z,4964.00
2018-08-31T15:37:54.789Z,4804.00
2018-08-31T15:38:54.780Z,31680.00
2018-08-31T15:39:54.793Z,32640.00
2018-08-31T15:40:54.761Z,31968.00
2018-08-31T15:41:54.750Z,29856.00
2018-08-31T15:42:54.737Z,27552.00
2018-08-31T15:43:54.727Z,26496.00
2018-08-31T15:44:54.740Z,22208.00
2018-08-31T15:45:54.706Z,13396.00
2018-08-31T15:46:54.696Z,9944.00
2018-08-31T15:47:54.684Z,9532.00
2018-08-31T15:48:54.672Z,9288.00
2018-08-31T15:49:54.873Z,9116.00
2018-08-31T15:50:54.653Z,8976.00
2018-08-31T15:51:54.644Z,8888.00
2018-08-31T15:52:54.632Z,8752.00
2018-08-31T15:53:54.625Z,8680.00
2018-08-31T15:54:54.634Z,8716.00
2018-08-31T15:55:54.619Z,8572.00
2018-08-31T15:56:54.590Z,8500.00
2018-08-31T15:57:54.578Z,8588.00
2018-08-31T15:58:54.567Z,8868.00
2018-08-31T15:59:54.582Z,8568.00
2018-08-31T16:00:54.547Z,8156.00
2018-08-31T16:01:54.540Z,8052.00
2018-08-31T16:02:54.523Z,7976.00
2018-08-31T16:03:54.515Z,7892.00
2018-08-31T16:04:54.528Z,7816.00
2018-08-31T16:05:54.494Z,7672.00
2018-08-31T16:06:54.484Z,7660.00
2018-08-31T16:07:54.473Z,7584.00
2018-08-31T16:08:54.460Z,7504.00
2018-08-31T16:09:54.475Z,7444.00
2018-08-31T16:10:54.437Z,7368.00
2018-08-31T16:11:54.429Z,7248.00
2018-08-31T16:12:54.416Z,7204.00
2018-08-31T16:13:54.406Z,7108.00
2018-08-31T16:14:54.420Z,7024.00
2018-08-31T16:15:54.385Z,6948.00
2018-08-31T16:16:54.374Z,6876.00
2018-08-31T16:17:54.377Z,6796.00
2018-08-31T16:18:54.432Z,6748.00
2018-08-31T16:19:54.366Z,6676.00
2018-08-31T16:20:54.379Z,6608.00
2018-08-31T16:21:54.318Z,6556.00
2018-08-31T16:22:54.306Z,6488.00
2018-08-31T16:23:54.310Z,6404.00
2018-08-31T16:24:54.310Z,6320.00
2018-08-31T16:25:54.274Z,6248.00
2018-08-31T16:26:54.261Z,6156.00
2018-08-31T16:27:54.251Z,6072.00
2018-08-31T16:28:54.278Z,5996.00
2018-08-31T16:29:54.256Z,5944.00
2018-08-31T16:30:54.221Z,5940.00
2018-08-31T16:31:54.211Z,5884.00
2018-08-31T16:32:54.200Z,5908.00
2018-08-31T16:33:54.187Z,5956.00
2018-08-31T16:34:54.206Z,5800.00
2018-08-31T16:35:54.165Z,5660.00
2018-08-31T16:36:54.162Z,5568.00
2018-08-31T16:37:54.144Z,5500.00
2018-08-31T16:38:54.337Z,5428.00
2018-08-31T16:39:54.150Z,5348.00
2018-08-31T16:40:54.112Z,5284.00
2018-08-31T16:41:54.102Z,5224.00
2018-08-31T16:42:54.095Z,5172.00
2018-08-31T16:43:54.080Z,5160.00
2018-08-31T16:44:54.098Z,5096.00
2018-08-31T16:45:54.058Z,5036.00
2018-08-31T16:46:54.049Z,4972.00
2018-08-31T16:47:54.061Z,4888.00
2018-08-31T16:48:54.025Z,4812.00
2018-08-31T16:49:54.063Z,4728.00
2018-08-31T16:50:54.004Z,4648.00
2018-08-31T16:51:54.002Z,4572.00
2018-08-31T16:52:53.984Z,4508.00
2018-08-31T16:53:53.978Z,4432.00
2018-08-31T16:54:53.982Z,4364.00
2018-08-31T16:55:53.971Z,4292.00
2018-08-31T16:56:53.937Z,4216.00
2018-08-31T16:57:53.948Z,4132.00
2018-08-31T16:58:53.919Z,4168.00
2018-08-31T16:59:53.941Z,4080.00
2018-08-31T17:00:53.897Z,3996.00
2018-08-31T17:01:53.882Z,3908.00
2018-08-31T17:02:53.879Z,3820.00
2018-08-31T17:03:53.860Z,3728.00
2018-08-31T17:04:53.854Z,3640.00
2018-08-31T17:05:53.864Z,3472.00
2018-08-31T17:06:53.828Z,3376.00
2018-08-31T17:07:53.886Z,3308.00
2018-08-31T17:08:53.805Z,3228.00
2018-08-31T17:09:53.794Z,3260.00
2018-08-31T17:10:53.809Z,3188.00
2018-08-31T17:11:53.773Z,2764.00
2018-08-31T17:12:53.763Z,3012.00
2018-08-31T17:13:53.750Z,2952.00
2018-08-31T17:14:53.744Z,2880.00
2018-08-31T17:15:53.755Z,2816.00
2018-08-31T17:16:53.774Z,2740.00
2018-08-31T17:17:53.705Z,2664.00
2018-08-31T17:18:53.696Z,2596.00
2018-08-31T17:19:53.685Z,2468.00
2018-08-31T17:20:53.696Z,2456.00
2018-08-31T17:21:53.669Z,2376.00
2018-08-31T17:22:53.653Z,2296.00
2018-08-31T17:23:53.640Z,2216.00
2018-08-31T17:24:53.630Z,2140.00
2018-08-31T17:25:53.641Z,2076.00
2018-08-31T17:26:53.608Z,1972.00
2018-08-31T17:27:53.595Z,1908.00
2018-08-31T17:28:53.604Z,1828.00
2018-08-31T17:29:53.728Z,1756.00
2018-08-31T17:30:53.588Z,1688.00
2018-08-31T17:31:53.553Z,1620.00
2018-08-31T17:32:53.542Z,1552.00
2018-08-31T17:33:53.527Z,1484.00
2018-08-31T17:34:53.519Z,1420.00
2018-08-31T17:35:53.532Z,1356.00
2018-08-31T17:36:53.496Z,1304.00
2018-08-31T17:37:53.486Z,1256.00
2018-08-31T17:38:53.476Z,1212.00
2018-08-31T17:39:53.464Z,1168.00
2018-08-31T17:40:53.477Z,1124.00
2018-08-31T17:41:53.444Z,1088.00
2018-08-31T17:42:53.431Z,1052.00
2018-08-31T17:43:53.420Z,1028.00
2018-08-31T17:44:53.408Z,1012.00
2018-08-31T17:45:53.423Z,992.00
2018-08-31T17:46:53.385Z,976.00
2018-08-31T17:47:53.377Z,956.00
2018-08-31T17:48:53.365Z,936.00
2018-08-31T17:49:53.353Z,916.00
2018-08-31T17:50:53.369Z,888.00
2018-08-31T17:51:53.331Z,856.00
2018-08-31T17:52:53.319Z,820.00
2018-08-31T17:53:53.309Z,780.00
2018-08-31T17:54:53.306Z,744.00
2018-08-31T17:55:53.314Z,704.00
2018-08-31T17:56:53.276Z,660.00
2018-08-31T17:57:53.285Z,620.00
2018-08-31T17:58:53.254Z,584.00
2018-08-31T17:59:53.242Z,548.00
2018-08-31T18:00:53.254Z,516.00
2018-08-31T18:01:53.220Z,488.00
2018-08-31T18:02:53.210Z,452.00
2018-08-31T18:03:53.198Z,424.00
2018-08-31T18:04:53.186Z,396.00
2018-08-31T18:05:53.202Z,368.00
2018-08-31T18:06:53.165Z,344.00
2018-08-31T18:07:53.153Z,320.00
2018-08-31T18:08:53.144Z,300.00
2018-08-31T18:09:53.131Z,280.00
2018-08-31T18:10:53.143Z,260.00
2018-08-31T18:11:53.109Z,240.00
2018-08-31T18:12:53.098Z,224.00
2018-08-31T18:13:53.089Z,212.00
2018-08-31T18:14:53.079Z,196.00
2018-08-31T18:15:53.177Z,180.00
2018-08-31T18:16:53.054Z,168.00
2018-08-31T18:17:53.042Z,156.00
2018-08-31T18:18:53.029Z,144.00
2018-08-31T18:19:53.019Z,132.00
2018-08-31T18:20:53.034Z,120.00
2018-08-31T18:21:52.997Z,112.00
2018-08-31T18:22:52.987Z,100.00